aviador You're here:

EPKK Decoded Metar

KRAKOW in POLAND
Report Time2017-09-20 16:30:00
UTC Time2017-09-20 16:36:09
Flight Rules mvfr MVFR
Wind330° at 08 kt
W.Decomp.*RWY 25: 1.8 kt HW 7.8 kt RCW
W.Rank330° ranks 24
Current wind is above 330° avg. (5.9)
Visibility9999 m
Phenomena:N/A
Clouds:Few 008 Hf
Broken 010 Hf
Expected CloudBase > 1,200 ft AGL from Temp-Dew spread
Ceiling1,000 ft
Temp12°C (ISA -1)
Dew Point09°C (82% RH)
AAT8.9°C
QNH1015 hPa
Density Alt696 ft
Elevation778 ft
Report Wrong Elevation
Raw Report
METAR EPKK 201630Z 33008KT 9999 FEW008 BKN010 12/09 Q1015=

Extra information for EPKK:More info

Metar Taf Metar & Taf Last 4 Metars F.Rules Stats Wind Profile Meteogram Temp Stats Airport Information Weather charts Add Link Nearby VenuesMetar ALERT Operation Metar Decoded Social comments